sensor_id;sensor_type;location;lat;lon;timestamp;P1;durP1;ratioP1;P2;durP2;ratioP2
9974;SDS011;5028;50.974;4.968;2023-05-03T00:00:04;4.93;;;2.70;;
9974;SDS011;5028;50.974;4.968;2023-05-03T00:02:34;7.30;;;2.93;;
9974;SDS011;5028;50.974;4.968;2023-05-03T00:05:07;4.17;;;2.43;;
9974;SDS011;5028;50.974;4.968;2023-05-03T00:07:40;4.93;;;3.10;;
9974;SDS011;5028;50.974;4.968;2023-05-03T00:10:09;4.63;;;3.30;;
9974;SDS011;5028;50.974;4.968;2023-05-03T00:12:39;5.53;;;2.80;;
9974;SDS011;5028;50.974;4.968;2023-05-03T00:15:08;4.07;;;2.63;;
9974;SDS011;5028;50.974;4.968;2023-05-03T00:17:37;5.50;;;3.03;;
9974;SDS011;5028;50.974;4.968;2023-05-03T00:20:07;5.47;;;2.97;;
9974;SDS011;5028;50.974;4.968;2023-05-03T00:22:37;3.70;;;2.50;;
9974;SDS011;5028;50.974;4.968;2023-05-03T00:25:06;5.07;;;2.87;;
9974;SDS011;5028;50.974;4.968;2023-05-03T00:27:35;5.90;;;2.97;;
9974;SDS011;5028;50.974;4.968;2023-05-03T00:30:04;3.83;;;2.80;;
9974;SDS011;5028;50.974;4.968;2023-05-03T00:32:33;3.83;;;2.50;;
9974;SDS011;5028;50.974;4.968;2023-05-03T00:35:01;5.50;;;2.83;;
9974;SDS011;5028;50.974;4.968;2023-05-03T00:37:31;6.30;;;3.00;;
9974;SDS011;5028;50.974;4.968;2023-05-03T00:39:59;3.93;;;2.97;;
9974;SDS011;5028;50.974;4.968;2023-05-03T00:42:28;5.67;;;3.00;;
9974;SDS011;5028;50.974;4.968;2023-05-03T00:44:56;4.73;;;2.83;;
9974;SDS011;5028;50.974;4.968;2023-05-03T00:47:25;6.40;;;2.90;;
9974;SDS011;5028;50.974;4.968;2023-05-03T00:49:53;4.20;;;2.77;;
9974;SDS011;5028;50.974;4.968;2023-05-03T00:52:22;5.70;;;2.80;;
9974;SDS011;5028;50.974;4.968;2023-05-03T00:54:53;4.83;;;2.80;;
9974;SDS011;5028;50.974;4.968;2023-05-03T00:57:23;5.93;;;3.20;;
9974;SDS011;5028;50.974;4.968;2023-05-03T00:59:52;7.33;;;3.03;;
9974;SDS011;5028;50.974;4.968;2023-05-03T01:02:21;4.37;;;2.77;;
9974;SDS011;5028;50.974;4.968;2023-05-03T01:04:50;6.27;;;3.27;;
9974;SDS011;5028;50.974;4.968;2023-05-03T01:07:21;6.40;;;3.13;;
9974;SDS011;5028;50.974;4.968;2023-05-03T01:10:02;5.77;;;3.27;;
9974;SDS011;5028;50.974;4.968;2023-05-03T01:12:40;3.90;;;3.20;;
9974;SDS011;5028;50.974;4.968;2023-05-03T01:15:16;5.33;;;3.00;;
9974;SDS011;5028;50.974;4.968;2023-05-03T01:17:57;3.83;;;3.10;;
9974;SDS011;5028;50.974;4.968;2023-05-03T01:20:30;5.53;;;2.93;;
9974;SDS011;5028;50.974;4.968;2023-05-03T01:23:04;6.23;;;3.40;;
9974;SDS011;5028;50.974;4.968;2023-05-03T01:25:38;4.97;;;3.13;;
9974;SDS011;5028;50.974;4.968;2023-05-03T01:28:07;6.37;;;3.10;;
9974;SDS011;5028;50.974;4.968;2023-05-03T01:30:35;6.33;;;3.20;;
9974;SDS011;5028;50.974;4.968;2023-05-03T01:33:09;5.07;;;3.17;;
9974;SDS011;5028;50.974;4.968;2023-05-03T01:35:43;8.97;;;3.63;;
9974;SDS011;5028;50.974;4.968;2023-05-03T01:38:16;6.73;;;3.40;;
9974;SDS011;5028;50.974;4.968;2023-05-03T01:40:49;7.53;;;3.03;;
9974;SDS011;5028;50.974;4.968;2023-05-03T01:43:18;5.17;;;3.30;;
9974;SDS011;5028;50.974;4.968;2023-05-03T01:45:49;5.80;;;3.30;;
9974;SDS011;5028;50.974;4.968;2023-05-03T01:48:17;4.90;;;3.47;;
9974;SDS011;5028;50.974;4.968;2023-05-03T01:50:46;7.70;;;4.50;;
9974;SDS011;5028;50.974;4.968;2023-05-03T01:53:14;3.97;;;3.27;;
9974;SDS011;5028;50.974;4.968;2023-05-03T01:55:42;7.77;;;4.40;;
9974;SDS011;5028;50.974;4.968;2023-05-03T01:58:12;5.77;;;4.10;;
9974;SDS011;5028;50.974;4.968;2023-05-03T02:00:40;7.90;;;4.90;;
9974;SDS011;5028;50.974;4.968;2023-05-03T02:03:08;6.17;;;5.57;;
9974;SDS011;5028;50.974;4.968;2023-05-03T02:05:36;8.47;;;5.97;;
9974;SDS011;5028;50.974;4.968;2023-05-03T02:08:04;8.93;;;6.10;;
9974;SDS011;5028;50.974;4.968;2023-05-03T02:10:33;6.93;;;6.23;;
9974;SDS011;5028;50.974;4.968;2023-05-03T02:13:01;8.93;;;6.73;;
9974;SDS011;5028;50.974;4.968;2023-05-03T02:15:30;9.17;;;7.27;;
9974;SDS011;5028;50.974;4.968;2023-05-03T02:17:59;9.83;;;7.00;;
9974;SDS011;5028;50.974;4.968;2023-05-03T02:20:28;8.03;;;6.77;;
9974;SDS011;5028;50.974;4.968;2023-05-03T02:23:00;7.70;;;6.90;;
9974;SDS011;5028;50.974;4.968;2023-05-03T02:25:28;7.00;;;6.27;;
9974;SDS011;5028;50.974;4.968;2023-05-03T02:27:57;8.23;;;7.00;;
9974;SDS011;5028;50.974;4.968;2023-05-03T02:30:25;9.27;;;6.70;;
9974;SDS011;5028;50.974;4.968;2023-05-03T02:32:55;8.30;;;6.27;;
9974;SDS011;5028;50.974;4.968;2023-05-03T02:35:23;9.10;;;6.33;;
9974;SDS011;5028;50.974;4.968;2023-05-03T02:37:51;8.07;;;6.20;;
9974;SDS011;5028;50.974;4.968;2023-05-03T02:40:20;9.83;;;6.60;;
9974;SDS011;5028;50.974;4.968;2023-05-03T02:42:48;10.23;;;6.53;;
9974;SDS011;5028;50.974;4.968;2023-05-03T02:45:16;8.33;;;6.50;;
9974;SDS011;5028;50.974;4.968;2023-05-03T02:47:44;6.83;;;5.33;;
9974;SDS011;5028;50.974;4.968;2023-05-03T02:50:14;5.87;;;5.07;;
9974;SDS011;5028;50.974;4.968;2023-05-03T02:52:42;6.73;;;4.83;;
9974;SDS011;5028;50.974;4.968;2023-05-03T02:55:11;7.47;;;4.87;;
9974;SDS011;5028;50.974;4.968;2023-05-03T02:57:39;4.93;;;4.47;;
9974;SDS011;5028;50.974;4.968;2023-05-03T03:00:09;6.70;;;4.47;;
9974;SDS011;5028;50.974;4.968;2023-05-03T03:02:40;7.13;;;4.57;;
9974;SDS011;5028;50.974;4.968;2023-05-03T03:05:09;8.50;;;4.50;;
9974;SDS011;5028;50.974;4.968;2023-05-03T03:07:38;8.70;;;4.07;;
9974;SDS011;5028;50.974;4.968;2023-05-03T03:10:07;5.63;;;4.40;;
9974;SDS011;5028;50.974;4.968;2023-05-03T03:12:36;5.43;;;3.87;;
9974;SDS011;5028;50.974;4.968;2023-05-03T03:15:05;5.87;;;4.30;;
9974;SDS011;5028;50.974;4.968;2023-05-03T03:17:34;7.57;;;4.43;;
9974;SDS011;5028;50.974;4.968;2023-05-03T03:20:05;6.67;;;4.23;;
9974;SDS011;5028;50.974;4.968;2023-05-03T03:22:36;6.33;;;4.33;;
9974;SDS011;5028;50.974;4.968;2023-05-03T03:25:06;10.07;;;4.83;;
9974;SDS011;5028;50.974;4.968;2023-05-03T03:27:36;7.80;;;4.50;;
9974;SDS011;5028;50.974;4.968;2023-05-03T03:30:05;7.57;;;4.73;;
9974;SDS011;5028;50.974;4.968;2023-05-03T03:32:35;7.27;;;4.73;;
9974;SDS011;5028;50.974;4.968;2023-05-03T03:35:04;8.23;;;5.20;;
9974;SDS011;5028;50.974;4.968;2023-05-03T03:37:33;8.33;;;4.60;;
9974;SDS011;5028;50.974;4.968;2023-05-03T03:40:04;8.30;;;5.00;;
9974;SDS011;5028;50.974;4.968;2023-05-03T03:42:33;10.57;;;5.10;;
9974;SDS011;5028;50.974;4.968;2023-05-03T03:45:01;7.37;;;5.10;;
9974;SDS011;5028;50.974;4.968;2023-05-03T03:47:31;6.87;;;4.90;;
9974;SDS011;5028;50.974;4.968;2023-05-03T03:49:59;7.97;;;5.03;;
9974;SDS011;5028;50.974;4.968;2023-05-03T03:52:28;5.73;;;5.00;;
9974;SDS011;5028;50.974;4.968;2023-05-03T03:54:59;7.10;;;5.73;;
9974;SDS011;5028;50.974;4.968;2023-05-03T03:57:29;13.70;;;5.97;;
9974;SDS011;5028;50.974;4.968;2023-05-03T03:59:57;6.87;;;5.10;;
9974;SDS011;5028;50.974;4.968;2023-05-03T04:02:26;8.53;;;5.17;;
9974;SDS011;5028;50.974;4.968;2023-05-03T04:04:54;6.53;;;4.63;;
9974;SDS011;5028;50.974;4.968;2023-05-03T04:07:22;7.77;;;5.03;;
9974;SDS011;5028;50.974;4.968;2023-05-03T04:09:51;7.87;;;5.10;;
9974;SDS011;5028;50.974;4.968;2023-05-03T04:12:19;10.13;;;4.83;;
9974;SDS011;5028;50.974;4.968;2023-05-03T04:14:49;5.00;;;4.53;;
9974;SDS011;5028;50.974;4.968;2023-05-03T04:17:17;5.67;;;4.90;;
9974;SDS011;5028;50.974;4.968;2023-05-03T04:19:45;7.17;;;5.23;;
9974;SDS011;5028;50.974;4.968;2023-05-03T04:22:13;7.33;;;5.00;;
9974;SDS011;5028;50.974;4.968;2023-05-03T04:24:42;9.03;;;5.23;;
9974;SDS011;5028;50.974;4.968;2023-05-03T04:27:11;7.03;;;5.27;;
9974;SDS011;5028;50.974;4.968;2023-05-03T04:29:40;9.30;;;5.53;;
9974;SDS011;5028;50.974;4.968;2023-05-03T04:32:09;6.33;;;5.50;;
9974;SDS011;5028;50.974;4.968;2023-05-03T04:34:39;6.83;;;5.13;;
9974;SDS011;5028;50.974;4.968;2023-05-03T04:37:08;8.63;;;6.20;;
9974;SDS011;5028;50.974;4.968;2023-05-03T04:39:36;9.07;;;5.77;;
9974;SDS011;5028;50.974;4.968;2023-05-03T04:42:04;10.30;;;5.63;;
9974;SDS011;5028;50.974;4.968;2023-05-03T04:44:34;7.47;;;5.30;;
9974;SDS011;5028;50.974;4.968;2023-05-03T04:47:02;8.57;;;4.93;;
9974;SDS011;5028;50.974;4.968;2023-05-03T04:49:31;7.27;;;5.47;;
9974;SDS011;5028;50.974;4.968;2023-05-03T04:52:00;6.93;;;5.30;;
9974;SDS011;5028;50.974;4.968;2023-05-03T04:54:28;9.00;;;5.17;;
9974;SDS011;5028;50.974;4.968;2023-05-03T04:56:56;7.83;;;6.00;;
9974;SDS011;5028;50.974;4.968;2023-05-03T04:59:24;7.73;;;6.13;;
9974;SDS011;5028;50.974;4.968;2023-05-03T05:01:52;6.70;;;5.90;;
9974;SDS011;5028;50.974;4.968;2023-05-03T05:04:21;7.00;;;5.93;;
9974;SDS011;5028;50.974;4.968;2023-05-03T05:06:52;8.60;;;6.00;;
9974;SDS011;5028;50.974;4.968;2023-05-03T05:09:21;9.40;;;5.90;;
9974;SDS011;5028;50.974;4.968;2023-05-03T05:11:50;10.30;;;6.37;;
9974;SDS011;5028;50.974;4.968;2023-05-03T05:14:22;9.80;;;7.27;;
9974;SDS011;5028;50.974;4.968;2023-05-03T05:16:50;8.53;;;7.63;;
9974;SDS011;5028;50.974;4.968;2023-05-03T05:19:18;8.60;;;7.33;;
9974;SDS011;5028;50.974;4.968;2023-05-03T05:21:46;13.47;;;7.93;;
9974;SDS011;5028;50.974;4.968;2023-05-03T05:24:16;8.90;;;7.10;;
9974;SDS011;5028;50.974;4.968;2023-05-03T05:26:44;9.10;;;7.27;;
9974;SDS011;5028;50.974;4.968;2023-05-03T05:29:13;10.67;;;7.80;;
9974;SDS011;5028;50.974;4.968;2023-05-03T05:31:41;11.87;;;8.03;;
9974;SDS011;5028;50.974;4.968;2023-05-03T05:34:09;10.57;;;8.57;;
9974;SDS011;5028;50.974;4.968;2023-05-03T05:36:37;10.60;;;8.27;;
9974;SDS011;5028;50.974;4.968;2023-05-03T05:39:06;10.03;;;9.03;;
9974;SDS011;5028;50.974;4.968;2023-05-03T05:41:36;10.57;;;7.90;;
9974;SDS011;5028;50.974;4.968;2023-05-03T05:44:04;8.57;;;7.67;;
9974;SDS011;5028;50.974;4.968;2023-05-03T05:46:33;13.77;;;7.47;;
9974;SDS011;5028;50.974;4.968;2023-05-03T05:49:01;9.77;;;7.87;;
9974;SDS011;5028;50.974;4.968;2023-05-03T05:51:29;11.17;;;6.83;;
9974;SDS011;5028;50.974;4.968;2023-05-03T05:53:58;7.93;;;6.40;;
9974;SDS011;5028;50.974;4.968;2023-05-03T05:56:26;7.77;;;6.43;;
9974;SDS011;5028;50.974;4.968;2023-05-03T05:58:55;8.00;;;6.87;;
9974;SDS011;5028;50.974;4.968;2023-05-03T06:01:30;7.67;;;6.10;;
9974;SDS011;5028;50.974;4.968;2023-05-03T06:03:58;8.03;;;5.77;;
9974;SDS011;5028;50.974;4.968;2023-05-03T06:06:27;6.77;;;6.13;;
9974;SDS011;5028;50.974;4.968;2023-05-03T06:08:55;9.43;;;6.00;;
9974;SDS011;5028;50.974;4.968;2023-05-03T06:11:25;6.53;;;5.80;;
9974;SDS011;5028;50.974;4.968;2023-05-03T06:13:54;9.23;;;5.47;;
9974;SDS011;5028;50.974;4.968;2023-05-03T06:16:23;12.47;;;5.70;;
9974;SDS011;5028;50.974;4.968;2023-05-03T06:18:52;9.60;;;5.53;;
9974;SDS011;5028;50.974;4.968;2023-05-03T06:21:20;9.53;;;5.73;;
9974;SDS011;5028;50.974;4.968;2023-05-03T06:23:48;8.23;;;5.40;;
9974;SDS011;5028;50.974;4.968;2023-05-03T06:26:17;8.30;;;5.70;;
9974;SDS011;5028;50.974;4.968;2023-05-03T06:28:45;10.03;;;6.03;;
9974;SDS011;5028;50.974;4.968;2023-05-03T06:31:15;11.20;;;5.83;;
9974;SDS011;5028;50.974;4.968;2023-05-03T06:33:43;7.80;;;6.10;;
9974;SDS011;5028;50.974;4.968;2023-05-03T06:36:11;9.97;;;5.90;;
9974;SDS011;5028;50.974;4.968;2023-05-03T06:38:40;8.67;;;5.93;;
9974;SDS011;5028;50.974;4.968;2023-05-03T06:41:09;7.90;;;5.90;;
9974;SDS011;5028;50.974;4.968;2023-05-03T06:43:37;9.90;;;5.73;;
9974;SDS011;5028;50.974;4.968;2023-05-03T06:46:05;10.53;;;6.37;;
9974;SDS011;5028;50.974;4.968;2023-05-03T06:48:35;6.53;;;5.40;;
9974;SDS011;5028;50.974;4.968;2023-05-03T06:51:03;7.40;;;5.57;;
9974;SDS011;5028;50.974;4.968;2023-05-03T06:53:31;7.83;;;5.90;;
9974;SDS011;5028;50.974;4.968;2023-05-03T06:56:00;9.00;;;5.80;;
9974;SDS011;5028;50.974;4.968;2023-05-03T06:58:29;7.13;;;5.60;;
9974;SDS011;5028;50.974;4.968;2023-05-03T07:00:57;9.43;;;6.10;;
9974;SDS011;5028;50.974;4.968;2023-05-03T07:03:25;7.67;;;5.97;;
9974;SDS011;5028;50.974;4.968;2023-05-03T07:05:55;10.17;;;6.00;;
9974;SDS011;5028;50.974;4.968;2023-05-03T07:08:24;9.83;;;5.93;;
9974;SDS011;5028;50.974;4.968;2023-05-03T07:10:52;10.57;;;6.00;;
9974;SDS011;5028;50.974;4.968;2023-05-03T07:13:20;8.53;;;6.17;;
9974;SDS011;5028;50.974;4.968;2023-05-03T07:15:48;11.70;;;5.80;;
9974;SDS011;5028;50.974;4.968;2023-05-03T07:18:18;7.67;;;6.27;;
9974;SDS011;5028;50.974;4.968;2023-05-03T07:20:46;9.40;;;6.17;;
9974;SDS011;5028;50.974;4.968;2023-05-03T07:23:16;11.43;;;6.80;;
9974;SDS011;5028;50.974;4.968;2023-05-03T07:25:44;7.93;;;6.17;;
9974;SDS011;5028;50.974;4.968;2023-05-03T07:28:12;8.60;;;6.00;;
9974;SDS011;5028;50.974;4.968;2023-05-03T07:30:40;10.00;;;5.93;;
9974;SDS011;5028;50.974;4.968;2023-05-03T07:33:09;10.00;;;6.63;;
9974;SDS011;5028;50.974;4.968;2023-05-03T07:35:37;8.23;;;6.40;;
9974;SDS011;5028;50.974;4.968;2023-05-03T07:38:05;10.50;;;6.70;;
9974;SDS011;5028;50.974;4.968;2023-05-03T07:40:35;8.53;;;6.60;;
9974;SDS011;5028;50.974;4.968;2023-05-03T07:43:03;10.53;;;6.50;;
9974;SDS011;5028;50.974;4.968;2023-05-03T07:45:31;8.00;;;6.60;;
9974;SDS011;5028;50.974;4.968;2023-05-03T07:48:00;7.53;;;6.13;;
9974;SDS011;5028;50.974;4.968;2023-05-03T07:50:29;9.70;;;6.33;;
9974;SDS011;5028;50.974;4.968;2023-05-03T07:52:57;9.17;;;6.67;;
9974;SDS011;5028;50.974;4.968;2023-05-03T07:55:25;10.13;;;6.80;;
9974;SDS011;5028;50.974;4.968;2023-05-03T07:57:56;11.83;;;7.00;;
9974;SDS011;5028;50.974;4.968;2023-05-03T08:00:25;11.03;;;7.30;;
9974;SDS011;5028;50.974;4.968;2023-05-03T08:02:53;8.53;;;6.63;;
9974;SDS011;5028;50.974;4.968;2023-05-03T08:05:22;10.50;;;7.00;;
9974;SDS011;5028;50.974;4.968;2023-05-03T08:07:50;9.13;;;6.93;;
9974;SDS011;5028;50.974;4.968;2023-05-03T08:10:19;11.50;;;6.60;;
9974;SDS011;5028;50.974;4.968;2023-05-03T08:12:47;10.27;;;6.90;;
9974;SDS011;5028;50.974;4.968;2023-05-03T08:15:17;10.33;;;6.60;;
9974;SDS011;5028;50.974;4.968;2023-05-03T08:17:45;11.83;;;6.80;;
9974;SDS011;5028;50.974;4.968;2023-05-03T08:20:14;12.10;;;6.90;;
9974;SDS011;5028;50.974;4.968;2023-05-03T08:22:42;9.83;;;6.53;;
9974;SDS011;5028;50.974;4.968;2023-05-03T08:25:11;16.10;;;7.47;;
9974;SDS011;5028;50.974;4.968;2023-05-03T08:27:42;10.53;;;6.80;;
9974;SDS011;5028;50.974;4.968;2023-05-03T08:30:10;11.60;;;6.87;;
9974;SDS011;5028;50.974;4.968;2023-05-03T08:32:40;12.60;;;7.60;;
9974;SDS011;5028;50.974;4.968;2023-05-03T08:35:08;11.20;;;6.70;;
9974;SDS011;5028;50.974;4.968;2023-05-03T08:37:39;9.83;;;6.77;;
9974;SDS011;5028;50.974;4.968;2023-05-03T08:40:09;13.10;;;7.40;;
9974;SDS011;5028;50.974;4.968;2023-05-03T08:42:39;10.27;;;7.10;;
9974;SDS011;5028;50.974;4.968;2023-05-03T08:45:09;10.87;;;6.77;;
9974;SDS011;5028;50.974;4.968;2023-05-03T08:47:40;9.23;;;6.57;;
9974;SDS011;5028;50.974;4.968;2023-05-03T08:50:11;9.33;;;6.57;;
9974;SDS011;5028;50.974;4.968;2023-05-03T08:52:40;9.63;;;6.37;;
9974;SDS011;5028;50.974;4.968;2023-05-03T08:55:09;8.73;;;6.40;;
9974;SDS011;5028;50.974;4.968;2023-05-03T08:57:38;10.83;;;6.87;;
9974;SDS011;5028;50.974;4.968;2023-05-03T09:00:07;9.37;;;5.87;;
9974;SDS011;5028;50.974;4.968;2023-05-03T09:02:38;10.57;;;6.00;;
9974;SDS011;5028;50.974;4.968;2023-05-03T09:07:59;7.40;;;6.03;;
9974;SDS011;5028;50.974;4.968;2023-05-03T09:10:29;7.63;;;6.20;;
9974;SDS011;5028;50.974;4.968;2023-05-03T09:12:57;12.37;;;6.33;;
9974;SDS011;5028;50.974;4.968;2023-05-03T09:15:26;8.67;;;6.17;;
9974;SDS011;5028;50.974;4.968;2023-05-03T09:18:10;8.90;;;5.60;;
9974;SDS011;5028;50.974;4.968;2023-05-03T09:20:43;10.87;;;6.07;;
9974;SDS011;5028;50.974;4.968;2023-05-03T09:23:18;14.13;;;6.70;;
9974;SDS011;5028;50.974;4.968;2023-05-03T09:25:57;8.03;;;6.03;;
9974;SDS011;5028;50.974;4.968;2023-05-03T09:28:26;9.53;;;6.13;;
9974;SDS011;5028;50.974;4.968;2023-05-03T09:31:02;9.50;;;6.97;;
9974;SDS011;5028;50.974;4.968;2023-05-03T09:33:34;7.40;;;6.13;;
9974;SDS011;5028;50.974;4.968;2023-05-03T09:36:03;12.87;;;6.20;;
9974;SDS011;5028;50.974;4.968;2023-05-03T09:38:33;7.80;;;5.83;;
9974;SDS011;5028;50.974;4.968;2023-05-03T09:41:03;9.67;;;6.10;;
9974;SDS011;5028;50.974;4.968;2023-05-03T09:43:32;13.30;;;6.47;;
9974;SDS011;5028;50.974;4.968;2023-05-03T09:46:07;7.07;;;6.10;;
9974;SDS011;5028;50.974;4.968;2023-05-03T09:48:38;8.23;;;5.63;;
9974;SDS011;5028;50.974;4.968;2023-05-03T09:51:07;8.40;;;6.67;;
9974;SDS011;5028;50.974;4.968;2023-05-03T09:53:37;11.10;;;6.10;;
9974;SDS011;5028;50.974;4.968;2023-05-03T09:56:07;8.77;;;5.87;;
9974;SDS011;5028;50.974;4.968;2023-05-03T09:58:38;12.83;;;6.87;;
9974;SDS011;5028;50.974;4.968;2023-05-03T10:01:07;7.63;;;6.00;;
9974;SDS011;5028;50.974;4.968;2023-05-03T10:03:38;10.63;;;6.23;;
9974;SDS011;5028;50.974;4.968;2023-05-03T10:06:13;8.47;;;6.23;;
9974;SDS011;5028;50.974;4.968;2023-05-03T10:08:48;10.67;;;6.37;;
9974;SDS011;5028;50.974;4.968;2023-05-03T10:11:19;9.27;;;5.80;;
9974;SDS011;5028;50.974;4.968;2023-05-03T10:13:52;11.90;;;6.27;;
9974;SDS011;5028;50.974;4.968;2023-05-03T10:16:23;9.87;;;6.73;;
9974;SDS011;5028;50.974;4.968;2023-05-03T10:18:57;7.80;;;5.90;;
9974;SDS011;5028;50.974;4.968;2023-05-03T10:21:37;12.63;;;6.13;;
9974;SDS011;5028;50.974;4.968;2023-05-03T10:24:18;10.50;;;6.60;;
9974;SDS011;5028;50.974;4.968;2023-05-03T10:26:46;8.40;;;6.10;;
9974;SDS011;5028;50.974;4.968;2023-05-03T10:32:27;8.00;;;6.20;;
9974;SDS011;5028;50.974;4.968;2023-05-03T10:35:02;10.67;;;6.40;;
9974;SDS011;5028;50.974;4.968;2023-05-03T10:37:33;8.70;;;6.50;;
9974;SDS011;5028;50.974;4.968;2023-05-03T10:40:07;9.17;;;6.43;;
9974;SDS011;5028;50.974;4.968;2023-05-03T10:42:37;9.23;;;6.20;;
9974;SDS011;5028;50.974;4.968;2023-05-03T10:45:07;8.30;;;6.10;;
9974;SDS011;5028;50.974;4.968;2023-05-03T10:47:37;7.97;;;6.20;;
9974;SDS011;5028;50.974;4.968;2023-05-03T10:50:26;9.73;;;6.00;;
9974;SDS011;5028;50.974;4.968;2023-05-03T10:52:55;10.20;;;6.67;;
9974;SDS011;5028;50.974;4.968;2023-05-03T10:55:23;8.57;;;6.07;;
9974;SDS011;5028;50.974;4.968;2023-05-03T10:57:53;8.13;;;5.70;;
9974;SDS011;5028;50.974;4.968;2023-05-03T11:00:26;6.47;;;5.30;;
9974;SDS011;5028;50.974;4.968;2023-05-03T11:03:08;6.23;;;5.63;;
9974;SDS011;5028;50.974;4.968;2023-05-03T11:05:53;8.03;;;5.70;;
9974;SDS011;5028;50.974;4.968;2023-05-03T11:08:23;9.30;;;5.93;;
9974;SDS011;5028;50.974;4.968;2023-05-03T11:10:57;7.33;;;5.77;;
9974;SDS011;5028;50.974;4.968;2023-05-03T11:13:26;7.30;;;5.87;;
9974;SDS011;5028;50.974;4.968;2023-05-03T11:15:54;10.00;;;5.93;;
9974;SDS011;5028;50.974;4.968;2023-05-03T11:21:21;7.17;;;5.50;;
9974;SDS011;5028;50.974;4.968;2023-05-03T11:23:51;13.27;;;6.03;;
9974;SDS011;5028;50.974;4.968;2023-05-03T11:26:19;6.47;;;5.77;;
9974;SDS011;5028;50.974;4.968;2023-05-03T11:28:52;9.53;;;5.70;;
9974;SDS011;5028;50.974;4.968;2023-05-03T11:31:20;7.73;;;6.13;;
9974;SDS011;5028;50.974;4.968;2023-05-03T11:33:49;7.17;;;5.60;;
9974;SDS011;5028;50.974;4.968;2023-05-03T11:36:17;9.80;;;5.97;;
9974;SDS011;5028;50.974;4.968;2023-05-03T11:38:48;9.87;;;6.00;;
9974;SDS011;5028;50.974;4.968;2023-05-03T11:41:16;8.40;;;5.90;;
9974;SDS011;5028;50.974;4.968;2023-05-03T11:43:45;8.80;;;6.57;;
9974;SDS011;5028;50.974;4.968;2023-05-03T11:46:26;7.47;;;6.13;;
9974;SDS011;5028;50.974;4.968;2023-05-03T11:48:58;8.00;;;6.40;;
9974;SDS011;5028;50.974;4.968;2023-05-03T11:51:29;11.43;;;6.97;;
9974;SDS011;5028;50.974;4.968;2023-05-03T11:53:59;8.27;;;6.60;;
9974;SDS011;5028;50.974;4.968;2023-05-03T11:56:49;8.10;;;6.83;;
9974;SDS011;5028;50.974;4.968;2023-05-03T11:59:18;7.27;;;6.10;;
9974;SDS011;5028;50.974;4.968;2023-05-03T12:01:46;7.33;;;5.53;;
9974;SDS011;5028;50.974;4.968;2023-05-03T12:04:15;7.43;;;6.67;;
9974;SDS011;5028;50.974;4.968;2023-05-03T12:06:44;7.33;;;6.30;;
9974;SDS011;5028;50.974;4.968;2023-05-03T12:09:21;9.93;;;6.33;;
9974;SDS011;5028;50.974;4.968;2023-05-03T12:11:52;6.27;;;5.67;;
9974;SDS011;5028;50.974;4.968;2023-05-03T12:14:23;9.20;;;6.67;;
9974;SDS011;5028;50.974;4.968;2023-05-03T12:16:52;7.97;;;6.47;;
9974;SDS011;5028;50.974;4.968;2023-05-03T12:19:22;10.10;;;6.67;;
9974;SDS011;5028;50.974;4.968;2023-05-03T12:21:52;14.77;;;6.67;;
9974;SDS011;5028;50.974;4.968;2023-05-03T12:24:41;9.20;;;6.33;;
9974;SDS011;5028;50.974;4.968;2023-05-03T12:27:10;6.87;;;5.87;;
9974;SDS011;5028;50.974;4.968;2023-05-03T12:29:40;6.67;;;6.03;;
9974;SDS011;5028;50.974;4.968;2023-05-03T12:32:08;7.10;;;6.40;;
9974;SDS011;5028;50.974;4.968;2023-05-03T12:34:37;8.60;;;6.00;;
9974;SDS011;5028;50.974;4.968;2023-05-03T12:37:08;8.27;;;6.60;;
9974;SDS011;5028;50.974;4.968;2023-05-03T12:39:37;8.67;;;6.27;;
9974;SDS011;5028;50.974;4.968;2023-05-03T12:42:24;8.90;;;6.50;;
9974;SDS011;5028;50.974;4.968;2023-05-03T12:44:59;6.77;;;6.00;;
9974;SDS011;5028;50.974;4.968;2023-05-03T12:47:30;6.60;;;5.57;;
9974;SDS011;5028;50.974;4.968;2023-05-03T12:50:03;7.90;;;6.53;;
9974;SDS011;5028;50.974;4.968;2023-05-03T12:52:38;6.57;;;5.97;;
9974;SDS011;5028;50.974;4.968;2023-05-03T12:55:10;10.63;;;5.93;;
9974;SDS011;5028;50.974;4.968;2023-05-03T12:57:45;7.50;;;6.13;;
9974;SDS011;5028;50.974;4.968;2023-05-03T13:00:33;7.67;;;5.50;;
9974;SDS011;5028;50.974;4.968;2023-05-03T13:03:03;8.80;;;5.60;;
9974;SDS011;5028;50.974;4.968;2023-05-03T13:05:34;9.73;;;5.97;;
9974;SDS011;5028;50.974;4.968;2023-05-03T13:08:07;7.17;;;5.90;;
9974;SDS011;5028;50.974;4.968;2023-05-03T13:10:36;7.43;;;5.70;;
9974;SDS011;5028;50.974;4.968;2023-05-03T13:13:08;9.13;;;6.13;;
9974;SDS011;5028;50.974;4.968;2023-05-03T13:15:37;10.20;;;6.40;;
9974;SDS011;5028;50.974;4.968;2023-05-03T13:18:07;10.77;;;6.67;;
9974;SDS011;5028;50.974;4.968;2023-05-03T13:20:36;8.83;;;6.57;;
9974;SDS011;5028;50.974;4.968;2023-05-03T13:23:04;8.27;;;6.40;;
9974;SDS011;5028;50.974;4.968;2023-05-03T13:25:33;7.20;;;6.50;;
9974;SDS011;5028;50.974;4.968;2023-05-03T13:28:01;8.03;;;5.73;;
9974;SDS011;5028;50.974;4.968;2023-05-03T13:30:31;8.20;;;6.37;;
9974;SDS011;5028;50.974;4.968;2023-05-03T13:33:02;7.67;;;5.87;;
9974;SDS011;5028;50.974;4.968;2023-05-03T13:35:35;8.83;;;6.10;;
9974;SDS011;5028;50.974;4.968;2023-05-03T13:38:06;8.80;;;5.50;;
9974;SDS011;5028;50.974;4.968;2023-05-03T13:40:35;6.97;;;6.27;;
9974;SDS011;5028;50.974;4.968;2023-05-03T13:43:03;6.43;;;5.70;;
9974;SDS011;5028;50.974;4.968;2023-05-03T13:45:33;7.33;;;5.60;;
9974;SDS011;5028;50.974;4.968;2023-05-03T13:48:01;8.93;;;5.63;;
9974;SDS011;5028;50.974;4.968;2023-05-03T13:50:44;6.90;;;5.37;;
9974;SDS011;5028;50.974;4.968;2023-05-03T13:53:15;11.20;;;5.90;;
9974;SDS011;5028;50.974;4.968;2023-05-03T13:55:43;5.87;;;5.27;;
9974;SDS011;5028;50.974;4.968;2023-05-03T13:58:12;7.73;;;5.97;;
9974;SDS011;5028;50.974;4.968;2023-05-03T14:00:42;7.57;;;6.00;;
9974;SDS011;5028;50.974;4.968;2023-05-03T14:03:10;6.33;;;5.40;;
9974;SDS011;5028;50.974;4.968;2023-05-03T14:05:41;7.73;;;5.60;;
9974;SDS011;5028;50.974;4.968;2023-05-03T14:08:09;6.77;;;5.10;;
9974;SDS011;5028;50.974;4.968;2023-05-03T14:10:39;7.93;;;5.70;;
9974;SDS011;5028;50.974;4.968;2023-05-03T14:13:08;8.53;;;6.13;;
9974;SDS011;5028;50.974;4.968;2023-05-03T14:15:39;6.40;;;5.80;;
9974;SDS011;5028;50.974;4.968;2023-05-03T14:18:09;7.33;;;5.30;;
9974;SDS011;5028;50.974;4.968;2023-05-03T14:20:38;8.63;;;5.80;;
9974;SDS011;5028;50.974;4.968;2023-05-03T14:23:15;9.77;;;5.83;;
9974;SDS011;5028;50.974;4.968;2023-05-03T14:25:43;9.47;;;5.50;;
9974;SDS011;5028;50.974;4.968;2023-05-03T14:28:12;6.17;;;5.57;;
9974;SDS011;5028;50.974;4.968;2023-05-03T14:30:41;9.83;;;5.27;;
9974;SDS011;5028;50.974;4.968;2023-05-03T14:33:09;8.47;;;5.40;;
9974;SDS011;5028;50.974;4.968;2023-05-03T14:35:39;7.03;;;5.17;;
9974;SDS011;5028;50.974;4.968;2023-05-03T14:38:07;6.63;;;4.73;;
9974;SDS011;5028;50.974;4.968;2023-05-03T14:40:36;7.93;;;5.00;;
9974;SDS011;5028;50.974;4.968;2023-05-03T14:43:04;6.80;;;4.77;;
9974;SDS011;5028;50.974;4.968;2023-05-03T14:45:33;7.43;;;5.43;;
9974;SDS011;5028;50.974;4.968;2023-05-03T14:48:02;7.40;;;5.50;;
9974;SDS011;5028;50.974;4.968;2023-05-03T14:50:31;7.10;;;5.13;;
9974;SDS011;5028;50.974;4.968;2023-05-03T14:52:59;10.33;;;5.07;;
9974;SDS011;5028;50.974;4.968;2023-05-03T14:55:27;6.10;;;4.80;;
9974;SDS011;5028;50.974;4.968;2023-05-03T14:57:56;6.27;;;4.60;;
9974;SDS011;5028;50.974;4.968;2023-05-03T15:00:24;8.53;;;5.33;;
9974;SDS011;5028;50.974;4.968;2023-05-03T15:02:53;8.73;;;5.27;;
9974;SDS011;5028;50.974;4.968;2023-05-03T15:05:23;7.80;;;5.20;;
9974;SDS011;5028;50.974;4.968;2023-05-03T15:07:59;9.80;;;4.73;;
9974;SDS011;5028;50.974;4.968;2023-05-03T15:10:27;8.67;;;5.53;;
9974;SDS011;5028;50.974;4.968;2023-05-03T15:12:56;11.13;;;5.57;;
9974;SDS011;5028;50.974;4.968;2023-05-03T15:15:24;6.20;;;4.93;;
9974;SDS011;5028;50.974;4.968;2023-05-03T15:17:52;6.43;;;4.93;;
9974;SDS011;5028;50.974;4.968;2023-05-03T15:20:22;7.23;;;4.87;;
9974;SDS011;5028;50.974;4.968;2023-05-03T15:22:52;5.43;;;4.67;;
9974;SDS011;5028;50.974;4.968;2023-05-03T15:25:20;5.43;;;4.60;;
9974;SDS011;5028;50.974;4.968;2023-05-03T15:27:49;7.20;;;5.23;;
9974;SDS011;5028;50.974;4.968;2023-05-03T15:30:18;6.20;;;4.33;;
9974;SDS011;5028;50.974;4.968;2023-05-03T15:32:52;7.53;;;4.77;;
9974;SDS011;5028;50.974;4.968;2023-05-03T15:35:21;10.07;;;5.40;;
9974;SDS011;5028;50.974;4.968;2023-05-03T15:37:50;6.80;;;5.47;;